Time;durP1;ratioP1;P1;durP2;ratioP2;P2;SDS_P1;SDS_P2;PMS_P1;PMS_P2;Temp;Humidity;BMP_temperature;BMP_pressure;BME280_temperature;BME280_humidity;BME280_pressure;Samples;Min_cycle;Max_cycle;Signal;HPM_P1;HPM_P2
2022/12/27 00:01:18;;;;;;;;;;;16.00;90.90;;;;;;5078339;28;20271;-89
2022/12/27 00:03:47;;;;;;;;;;;16.00;91.00;;;;;;5079032;28;19918;-89
2022/12/27 00:06:17;;;;;;;;;;;15.90;91.00;;;;;;5078004;28;19924;-89
2022/12/27 00:08:43;;;;;;;;;;;15.90;91.00;;;;;;5078674;28;19977;-89
2022/12/27 00:11:10;;;;;;;;;;;15.90;91.10;;;;;;5077238;28;20014;-89
2022/12/27 00:13:36;;;;;;;;;;;15.90;91.10;;;;;;5076517;28;19915;-89
2022/12/27 00:16:02;;;;;;;;;;;15.80;91.10;;;;;;5093819;28;19908;-89
2022/12/27 00:18:28;;;;;;;;;;;15.80;91.20;;;;;;5075998;28;19908;-89
2022/12/27 00:20:58;;;;;;;;;;;15.80;91.10;;;;;;5076141;28;19908;-89
2022/12/27 00:23:23;;;;;;;;;;;15.80;91.20;;;;;;5075694;28;20232;-89
2022/12/27 00:25:49;;;;;;;;;;;15.70;91.20;;;;;;5076237;28;20294;-89
2022/12/27 00:28:14;;;;;;;;;;;15.70;91.20;;;;;;5077370;28;19908;-89
2022/12/27 00:30:40;;;;;;;;;;;15.70;91.20;;;;;;5075488;28;19915;-89
2022/12/27 00:33:06;;;;;;;;;;;15.70;91.20;;;;;;5078632;28;19923;-89
2022/12/27 00:35:31;;;;;;;;;;;15.70;91.20;;;;;;5078789;28;19944;-89
2022/12/27 00:37:57;;;;;;;;;;;15.70;91.30;;;;;;5079247;28;19908;-89
2022/12/27 00:40:23;;;;;;;;;;;15.60;91.30;;;;;;5079173;28;19909;-89
2022/12/27 00:42:48;;;;;;;;;;;15.60;91.20;;;;;;5079070;28;19915;-89
2022/12/27 00:45:14;;;;;;;;;;;15.60;91.20;;;;;;5096733;28;19977;-89
2022/12/27 00:47:40;;;;;;;;;;;15.60;91.30;;;;;;5079451;28;19941;-88
2022/12/27 00:50:06;;;;;;;;;;;15.60;91.20;;;;;;5078496;28;19915;-89
2022/12/27 00:52:31;;;;;;;;;;;15.50;91.20;;;;;;5097520;28;19915;-89
2022/12/27 00:54:57;;;;;;;;;;;15.50;91.30;;;;;;5079414;28;19908;-89
2022/12/27 00:57:22;;;;;;;;;;;15.50;91.20;;;;;;5096608;28;19908;-89
2022/12/27 00:59:48;;;;;;;;;;;15.50;91.30;;;;;;5077623;28;19908;-89
2022/12/27 01:02:14;;;;;;;;;;;15.50;91.30;;;;;;5078969;28;19908;-89
2022/12/27 01:04:39;;;;;;;;;;;15.40;91.40;;;;;;5079097;28;19939;-89
2022/12/27 01:07:05;;;;;;;;;;;15.40;91.30;;;;;;5079911;28;19908;-89
2022/12/27 01:09:31;;;;;;;;;;;15.40;91.30;;;;;;5080108;28;19919;-89
2022/12/27 01:11:56;;;;;;;;;;;15.40;91.30;;;;;;5079646;28;19908;-89
2022/12/27 01:14:22;;;;;;;;;;;15.40;91.30;;;;;;5079173;28;19967;-89
2022/12/27 01:16:47;;;;;;;;;;;15.40;91.30;;;;;;5079409;28;19915;-89
2022/12/27 01:19:13;;;;;;;;;;;15.40;91.30;;;;;;5078140;28;20018;-89
2022/12/27 01:21:39;;;;;;;;;;;15.40;91.30;;;;;;5079058;28;20503;-89
2022/12/27 01:24:05;;;;;;;;;;;15.30;91.20;;;;;;5078049;28;20260;-89
2022/12/27 01:26:30;;;;;;;;;;;15.30;91.20;;;;;;5094652;28;19920;-89
2022/12/27 01:28:56;;;;;;;;;;;15.30;91.20;;;;;;5076091;28;19908;-88
2022/12/27 01:31:26;;;;;;;;;;;15.30;91.20;;;;;;5077557;28;19904;-88
2022/12/27 01:33:58;;;;;;;;;;;15.30;91.20;;;;;;5077044;28;19919;-89
2022/12/27 01:36:25;;;;;;;;;;;15.30;91.20;;;;;;5076453;28;20284;-89
2022/12/27 01:38:50;;;;;;;;;;;15.30;91.20;;;;;;5077444;28;19908;-89
2022/12/27 01:44:22;;;;;;;;;;;15.20;91.30;;;;;;5095160;28;19919;-89
2022/12/27 01:46:47;;;;;;;;;;;15.20;91.20;;;;;;5077634;28;19913;-89
2022/12/27 01:49:13;;;;;;;;;;;15.20;91.20;;;;;;5077248;28;19988;-89
2022/12/27 01:51:39;;;;;;;;;;;15.20;91.10;;;;;;5077800;28;19912;-89
2022/12/27 01:54:04;;;;;;;;;;;15.20;91.10;;;;;;5077326;28;19908;-89
2022/12/27 01:56:30;;;;;;;;;;;15.10;91.10;;;;;;5078173;28;19919;-89
2022/12/27 01:59:00;;;;;;;;;;;15.10;91.10;;;;;;5077799;28;19986;-89
2022/12/27 02:01:31;;;;;;;;;;;15.10;91.10;;;;;;5077699;28;19908;-89
2022/12/27 02:04:00;;;;;;;;;;;15.10;91.00;;;;;;5077677;28;19908;-88
2022/12/27 02:06:27;;;;;;;;;;;15.10;91.00;;;;;;5078013;28;19976;-89
2022/12/27 02:08:58;;;;;;;;;;;15.10;91.00;;;;;;5077321;28;20281;-89
2022/12/27 02:14:12;;;;;;;;;;;15.10;91.00;;;;;;5095801;28;19915;-89
2022/12/27 02:16:38;;;;;;;;;;;15.10;90.90;;;;;;5078287;28;19908;-89
2022/12/27 02:19:07;;;;;;;;;;;15.10;91.00;;;;;;5078267;28;19919;-89
2022/12/27 02:21:35;;;;;;;;;;;15.00;90.90;;;;;;5078378;28;20255;-89
2022/12/27 02:24:13;;;;;;;;;;;15.00;90.90;;;;;;5078099;28;20069;-88
2022/12/27 02:26:44;;;;;;;;;;;15.00;90.90;;;;;;5078477;28;19920;-89
2022/12/27 02:29:10;;;;;;;;;;;15.00;90.90;;;;;;5078202;28;20309;-89
2022/12/27 02:31:38;;;;;;;;;;;15.00;90.90;;;;;;5078817;28;19908;-89
2022/12/27 02:34:09;;;;;;;;;;;15.00;90.90;;;;;;5096046;28;20016;-89
2022/12/27 02:36:35;;;;;;;;;;;15.00;90.80;;;;;;5095580;28;19915;-89
2022/12/27 02:39:02;;;;;;;;;;;15.00;90.80;;;;;;5074346;28;20113;-89
2022/12/27 02:53:13;;;;;;;;;;;14.90;90.70;;;;;;5072879;28;19977;-89
2022/12/27 02:55:41;;;;;;;;;;;14.90;90.70;;;;;;5080312;28;19908;-88
2022/12/27 02:58:19;;;;;;;;;;;14.80;90.70;;;;;;5080130;28;19908;-89
2022/12/27 03:04:00;;;;;;;;;;;14.80;90.60;;;;;;5098679;28;20154;-88
2022/12/27 03:06:40;;;;;;;;;;;14.80;90.60;;;;;;5080305;28;20208;-88
2022/12/27 03:15:53;;;;;;;;;;;14.80;90.50;;;;;;5080033;28;19945;-89
2022/12/27 03:17:35;;;;;;;;;;;14.80;90.40;;;;;;5099783;28;19957;-89
2022/12/27 03:25:36;;;;;;;;;;;14.80;90.20;;;;;;5098271;28;19976;-88
2022/12/27 03:33:35;;;;;;;;;;;14.80;90.10;;;;;;5098792;28;20296;-89
2022/12/27 03:38:57;;;;;;;;;;;14.70;90.10;;;;;;5099599;28;20239;-89
2022/12/27 03:44:25;;;;;;;;;;;14.70;90.20;;;;;;5099066;28;20498;-88
2022/12/27 03:46:56;;;;;;;;;;;14.60;90.20;;;;;;5081885;28;19923;-89
2022/12/27 03:49:21;;;;;;;;;;;14.60;90.30;;;;;;5081592;28;19918;-89
2022/12/27 03:51:47;;;;;;;;;;;14.60;90.40;;;;;;5081663;28;20048;-89
2022/12/27 03:54:25;;;;;;;;;;;15.10;89.40;;;;;;5081534;28;20002;-88
2022/12/27 03:56:59;;;;;;;;;;;16.30;80.20;;;;;;5080799;28;20302;-89
2022/12/27 03:59:25;;;;;;;;;;;17.00;75.40;;;;;;5097004;28;19978;-89
2022/12/27 04:01:51;;;;;;;;;;;17.30;72.70;;;;;;5080350;28;19939;-89
2022/12/27 04:04:17;;;;;;;;;;;17.50;71.00;;;;;;5079257;28;20166;-89
2022/12/27 04:06:42;;;;;;;;;;;17.80;69.20;;;;;;5079778;28;19912;-89
2022/12/27 04:36:31;;;;;;;;;;;18.80;61.60;;;;;;5095640;28;20228;-88
2022/12/27 04:38:57;;;;;;;;;;;18.60;62.00;;;;;;5078350;28;20270;-89
2022/12/27 04:55:11;;;;;;;;;;;17.60;66.40;;;;;;5096611;28;19969;-89
2022/12/27 04:57:37;;;;;;;;;;;17.50;67.20;;;;;;5077392;28;19920;-89
2022/12/27 05:02:47;;;;;;;;;;;17.20;68.80;;;;;;5094493;28;19937;-89
2022/12/27 05:05:13;;;;;;;;;;;17.10;69.50;;;;;;5094006;28;20290;-89
2022/12/27 05:15:53;;;;;;;;;;;16.70;72.00;;;;;;5094987;28;19984;-89
2022/12/27 05:18:19;;;;;;;;;;;16.60;72.60;;;;;;5078530;28;20194;-89
2022/12/27 05:20:44;;;;;;;;;;;16.50;73.30;;;;;;5076277;28;20123;-89
2022/12/27 05:25:54;;;;;;;;;;;16.20;74.80;;;;;;5095799;28;19923;-89
2022/12/27 05:28:20;;;;;;;;;;;16.20;75.90;;;;;;5078262;28;19912;-89
2022/12/27 05:30:45;;;;;;;;;;;16.10;76.60;;;;;;5077163;28;19912;-89
2022/12/27 05:33:11;;;;;;;;;;;16.00;76.80;;;;;;5076720;28;19916;-89
2022/12/27 05:35:37;;;;;;;;;;;16.10;76.50;;;;;;5075708;28;19916;-89
2022/12/27 05:38:03;;;;;;;;;;;16.20;75.60;;;;;;5076504;28;19908;-89
2022/12/27 05:40:28;;;;;;;;;;;16.50;73.70;;;;;;5095705;28;19905;-89
2022/12/27 05:42:56;;;;;;;;;;;16.90;71.20;;;;;;5095328;28;19923;-88
2022/12/27 05:45:22;;;;;;;;;;;17.20;68.90;;;;;;5077376;28;20205;-89
2022/12/27 05:47:47;;;;;;;;;;;17.50;66.70;;;;;;5077414;28;19908;-89
2022/12/27 05:50:13;;;;;;;;;;;17.70;65.40;;;;;;5077230;28;19973;-89
2022/12/27 05:52:39;;;;;;;;;;;17.90;63.90;;;;;;5078114;28;20198;-89
2022/12/27 05:55:04;;;;;;;;;;;18.20;62.70;;;;;;5077252;28;19912;-89
2022/12/27 05:57:30;;;;;;;;;;;18.30;61.90;;;;;;5076598;28;19919;-89
2022/12/27 05:59:56;;;;;;;;;;;18.30;61.40;;;;;;5076729;28;19908;-89
2022/12/27 06:02:22;;;;;;;;;;;18.30;61.10;;;;;;5077861;28;19927;-89
2022/12/27 06:04:47;;;;;;;;;;;18.30;61.30;;;;;;5076444;28;19908;-89
2022/12/27 06:07:13;;;;;;;;;;;18.10;61.40;;;;;;5076356;28;19916;-89
2022/12/27 06:09:39;;;;;;;;;;;18.00;61.80;;;;;;5075603;28;19969;-88
2022/12/27 06:12:05;;;;;;;;;;;17.90;62.10;;;;;;5075381;28;19920;-89
2022/12/27 06:14:30;;;;;;;;;;;17.80;62.50;;;;;;5076452;28;19908;-89
2022/12/27 06:16:56;;;;;;;;;;;17.70;63.50;;;;;;5076524;28;19919;-89
2022/12/27 06:19:22;;;;;;;;;;;17.60;63.40;;;;;;5074843;28;20278;-89
2022/12/27 06:21:47;;;;;;;;;;;17.50;63.80;;;;;;5075956;28;19908;-89
2022/12/27 06:24:13;;;;;;;;;;;17.40;64.50;;;;;;5076378;28;19919;-89
2022/12/27 06:26:39;;;;;;;;;;;17.30;65.10;;;;;;5075083;28;19923;-89
2022/12/27 06:29:05;;;;;;;;;;;17.20;65.60;;;;;;5081003;28;20208;-89
2022/12/27 06:31:30;;;;;;;;;;;17.10;66.10;;;;;;5078795;28;20274;-89
2022/12/27 06:33:56;;;;;;;;;;;17.00;66.70;;;;;;5078909;28;19956;-89
2022/12/27 06:36:23;;;;;;;;;;;16.90;67.10;;;;;;5080000;28;20237;-88
2022/12/27 06:38:49;;;;;;;;;;;16.80;67.50;;;;;;5079130;28;19911;-89
2022/12/27 06:41:18;;;;;;;;;;;16.70;68.20;;;;;;5079547;28;19916;-89
2022/12/27 06:43:44;;;;;;;;;;;16.70;68.50;;;;;;5080331;28;19908;-89
2022/12/27 06:46:11;;;;;;;;;;;16.60;68.90;;;;;;5080216;28;19916;-88
2022/12/27 06:48:37;;;;;;;;;;;16.60;68.90;;;;;;5080730;28;20273;-89
2022/12/27 06:51:03;;;;;;;;;;;16.60;69.10;;;;;;5079905;28;19998;-88
2022/12/27 06:53:29;;;;;;;;;;;16.60;69.00;;;;;;5078386;28;19908;-89
2022/12/27 06:55:55;;;;;;;;;;;16.70;68.60;;;;;;5077584;28;19914;-89
2022/12/27 06:58:20;;;;;;;;;;;16.80;67.70;;;;;;5076588;28;20266;-89
2022/12/27 07:00:46;;;;;;;;;;;17.00;66.50;;;;;;5077242;28;19908;-89
2022/12/27 07:03:12;;;;;;;;;;;17.20;65.30;;;;;;5077808;28;19912;-89
2022/12/27 07:05:37;;;;;;;;;;;17.40;64.20;;;;;;5077722;28;19943;-89
2022/12/27 07:08:03;;;;;;;;;;;17.50;63.20;;;;;;5079150;28;19916;-89
2022/12/27 07:10:29;;;;;;;;;;;17.60;62.40;;;;;;5078757;28;19908;-89
2022/12/27 07:12:55;;;;;;;;;;;17.80;61.90;;;;;;5078598;28;19908;-89
2022/12/27 07:15:21;;;;;;;;;;;17.80;61.30;;;;;;5078525;28;20201;-89
2022/12/27 07:17:46;;;;;;;;;;;17.90;60.90;;;;;;5077460;28;19908;-89
2022/12/27 07:20:12;;;;;;;;;;;17.90;60.50;;;;;;5079236;28;19956;-89
2022/12/27 07:22:37;;;;;;;;;;;18.00;60.20;;;;;;5078810;28;19999;-88
2022/12/27 07:25:03;;;;;;;;;;;18.00;60.00;;;;;;5079986;28;20228;-89
2022/12/27 07:27:32;;;;;;;;;;;18.00;60.00;;;;;;5078407;28;19908;-89
2022/12/27 07:29:57;;;;;;;;;;;17.90;60.10;;;;;;5078837;28;20010;-89
2022/12/27 07:32:23;;;;;;;;;;;17.90;60.00;;;;;;5078246;28;20011;-89
2022/12/27 07:34:48;;;;;;;;;;;17.80;60.30;;;;;;5078502;28;20193;-89
2022/12/27 07:37:15;;;;;;;;;;;17.70;60.60;;;;;;5078761;28;20155;-89
2022/12/27 07:39:41;;;;;;;;;;;17.60;61.00;;;;;;5078116;28;20201;-89
2022/12/27 07:42:06;;;;;;;;;;;17.50;61.50;;;;;;5078097;28;19915;-89
2022/12/27 07:44:32;;;;;;;;;;;17.40;61.90;;;;;;5077767;28;20003;-89
2022/12/27 07:46:58;;;;;;;;;;;17.40;62.20;;;;;;5077680;28;20357;-89
2022/12/27 07:49:23;;;;;;;;;;;17.30;62.60;;;;;;5078521;28;19912;-89
2022/12/27 07:51:49;;;;;;;;;;;17.20;62.90;;;;;;5094653;28;20215;-89
2022/12/27 07:54:14;;;;;;;;;;;17.10;63.30;;;;;;5076577;28;19908;-88
2022/12/27 07:56:40;;;;;;;;;;;17.00;63.70;;;;;;5077592;28;19955;-88
2022/12/27 07:59:09;;;;;;;;;;;17.00;64.00;;;;;;5083964;28;20128;-88
2022/12/27 08:04:19;;;;;;;;;;;16.90;64.60;;;;;;5095094;28;20080;-89
2022/12/27 08:06:45;;;;;;;;;;;16.90;64.80;;;;;;5078310;28;19916;-89
2022/12/27 08:09:12;;;;;;;;;;;16.90;64.90;;;;;;5077445;28;20082;-89
2022/12/27 08:11:37;;;;;;;;;;;16.90;65.00;;;;;;5078856;28;19916;-89
2022/12/27 08:14:03;;;;;;;;;;;16.90;65.00;;;;;;5077567;28;19914;-89
2022/12/27 08:16:28;;;;;;;;;;;17.00;64.60;;;;;;5077083;28;19952;-89
2022/12/27 08:18:54;;;;;;;;;;;17.10;64.20;;;;;;5074966;28;19909;-89
2022/12/27 08:21:21;;;;;;;;;;;17.20;63.70;;;;;;5074835;28;20282;-89
2022/12/27 08:23:47;;;;;;;;;;;17.30;63.20;;;;;;5094471;28;20233;-89
2022/12/27 08:26:12;;;;;;;;;;;17.30;62.80;;;;;;5076515;28;20297;-89
2022/12/27 08:28:38;;;;;;;;;;;17.40;62.30;;;;;;5077691;28;19915;-89
2022/12/27 08:31:05;;;;;;;;;;;17.40;62.00;;;;;;5076849;28;19977;-89
2022/12/27 08:33:30;;;;;;;;;;;17.50;61.70;;;;;;5076118;28;19974;-89
2022/12/27 08:35:57;;;;;;;;;;;17.50;61.40;;;;;;5076434;28;19947;-89
2022/12/27 08:38:23;;;;;;;;;;;17.60;61.10;;;;;;5074968;28;19939;-89
2022/12/27 08:40:49;;;;;;;;;;;17.70;60.70;;;;;;5092137;28;19951;-90
2022/12/27 08:43:15;;;;;;;;;;;17.80;60.30;;;;;;5094192;28;19997;-89
2022/12/27 08:45:40;;;;;;;;;;;17.80;60.10;;;;;;5074612;28;19912;-89
2022/12/27 08:48:06;;;;;;;;;;;17.70;60.00;;;;;;5075393;28;20040;-89
2022/12/27 08:50:32;;;;;;;;;;;17.80;60.10;;;;;;5076602;28;19977;-89
2022/12/27 08:52:59;;;;;;;;;;;17.80;60.10;;;;;;5076531;28;19944;-90
2022/12/27 08:55:28;;;;;;;;;;;17.70;60.10;;;;;;5074579;28;20068;-89
2022/12/27 08:57:57;;;;;;;;;;;17.70;60.40;;;;;;5074169;28;20312;-89
2022/12/27 09:00:24;;;;;;;;;;;17.60;60.50;;;;;;5073528;28;19908;-89
2022/12/27 09:02:49;;;;;;;;;;;17.50;61.40;;;;;;5091127;28;19908;-89
2022/12/27 09:05:15;;;;;;;;;;;17.50;62.20;;;;;;5075701;28;19948;-89
2022/12/27 09:07:40;;;;;;;;;;;17.50;62.90;;;;;;5092031;28;19969;-89
2022/12/27 09:10:07;;;;;;;;;;;17.60;63.20;;;;;;5079330;28;20389;-91
2022/12/27 09:12:33;;;;;;;;;;;18.10;62.70;;;;;;5075770;28;19908;-91
2022/12/27 09:14:58;;;;;;;;;;;18.80;60.40;;;;;;5072551;28;20091;-91
2022/12/27 09:17:24;;;;;;;;;;;19.30;58.90;;;;;;5071185;28;20236;-91
2022/12/27 09:19:50;;;;;;;;;;;19.70;58.00;;;;;;5072019;28;19912;-90
2022/12/27 09:22:15;;;;;;;;;;;20.00;57.30;;;;;;5070618;28;19909;-91
2022/12/27 09:24:41;;;;;;;;;;;20.20;56.70;;;;;;5071972;28;20143;-90
2022/12/27 09:27:07;;;;;;;;;;;20.30;56.30;;;;;;5073040;28;20405;-91
2022/12/27 09:29:32;;;;;;;;;;;20.10;56.10;;;;;;5074070;28;19995;-90
2022/12/27 09:31:58;;;;;;;;;;;20.10;56.10;;;;;;5071358;28;19915;-91
2022/12/27 09:34:23;;;;;;;;;;;20.00;56.20;;;;;;5073205;28;20092;-91
2022/12/27 09:36:49;;;;;;;;;;;20.00;56.10;;;;;;5074314;28;19908;-90
2022/12/27 09:39:16;;;;;;;;;;;20.00;56.10;;;;;;5073853;28;20002;-91
2022/12/27 09:41:47;;;;;;;;;;;20.10;56.00;;;;;;5073645;28;19908;-90
2022/12/27 09:44:32;;;;;;;;;;;20.20;55.90;;;;;;5073588;28;19908;-91
2022/12/27 09:47:01;;;;;;;;;;;20.30;55.60;;;;;;5073349;28;19912;-90
2022/12/27 09:49:30;;;;;;;;;;;20.40;55.50;;;;;;5071508;28;20137;-90
2022/12/27 09:52:09;;;;;;;;;;;20.30;55.40;;;;;;5072147;28;20328;-91
2022/12/27 09:54:41;;;;;;;;;;;20.30;55.50;;;;;;5072407;28;20003;-91
2022/12/27 09:57:15;;;;;;;;;;;20.30;55.60;;;;;;5070537;28;19958;-90
2022/12/27 09:59:43;;;;;;;;;;;20.20;55.70;;;;;;5088834;28;19913;-90
2022/12/27 10:02:20;;;;;;;;;;;20.10;55.90;;;;;;5072490;28;19909;-91
2022/12/27 10:04:46;;;;;;;;;;;20.00;56.00;;;;;;5073431;28;20300;-90
2022/12/27 10:07:19;;;;;;;;;;;19.90;56.20;;;;;;5088927;28;19968;-91
2022/12/27 10:09:48;;;;;;;;;;;19.80;56.40;;;;;;5070738;28;20071;-91
2022/12/27 10:12:17;;;;;;;;;;;19.70;56.70;;;;;;5090309;28;19908;-90
2022/12/27 10:14:57;;;;;;;;;;;19.60;56.90;;;;;;5073007;28;19977;-90
2022/12/27 10:17:40;;;;;;;;;;;19.50;57.20;;;;;;5070340;28;19908;-90
2022/12/27 10:20:21;;;;;;;;;;;19.30;57.50;;;;;;5090886;28;19916;-90
2022/12/27 10:22:57;;;;;;;;;;;19.20;57.90;;;;;;5072623;28;20088;-90
2022/12/27 10:25:24;;;;;;;;;;;19.00;58.20;;;;;;5073062;28;19997;-90
2022/12/27 10:27:52;;;;;;;;;;;18.90;58.60;;;;;;5072774;28;19916;-90
2022/12/27 10:30:19;;;;;;;;;;;18.80;59.30;;;;;;5073011;28;19907;-90
2022/12/27 10:32:44;;;;;;;;;;;18.70;59.20;;;;;;5073654;28;19912;-90
2022/12/27 10:35:15;;;;;;;;;;;18.60;59.50;;;;;;5072487;28;19912;-90
2022/12/27 10:37:41;;;;;;;;;;;18.50;59.80;;;;;;5073524;28;19912;-91
2022/12/27 10:40:10;;;;;;;;;;;18.40;60.10;;;;;;5074383;28;19974;-91
2022/12/27 10:42:38;;;;;;;;;;;18.30;61.20;;;;;;5073157;28;19916;-90
2022/12/27 10:45:22;;;;;;;;;;;18.20;61.00;;;;;;5072311;28;20301;-90
2022/12/27 10:47:48;;;;;;;;;;;18.20;61.20;;;;;;5088043;28;19909;-91
2022/12/27 10:50:14;;;;;;;;;;;18.10;61.50;;;;;;5070561;28;19908;-90
2022/12/27 10:52:39;;;;;;;;;;;18.10;61.70;;;;;;5071284;28;19908;-91
2022/12/27 10:55:25;;;;;;;;;;;18.10;61.80;;;;;;5088572;28;19920;-90
2022/12/27 10:57:50;;;;;;;;;;;18.10;61.90;;;;;;5071886;28;19908;-90
2022/12/27 11:00:16;;;;;;;;;;;18.10;61.80;;;;;;5073190;28;20255;-91
2022/12/27 11:02:49;;;;;;;;;;;18.10;61.80;;;;;;5071205;28;19908;-90
2022/12/27 11:05:25;;;;;;;;;;;18.10;61.70;;;;;;5090893;28;19930;-91
2022/12/27 11:07:51;;;;;;;;;;;18.20;61.70;;;;;;5072408;28;20106;-91
2022/12/27 11:10:21;;;;;;;;;;;18.20;61.50;;;;;;5072431;28;19916;-91
2022/12/27 11:12:57;;;;;;;;;;;18.30;61.40;;;;;;5070774;28;19912;-90
2022/12/27 11:15:23;;;;;;;;;;;18.30;61.20;;;;;;5072863;28;19916;-90
2022/12/27 11:17:50;;;;;;;;;;;18.40;60.90;;;;;;5073415;28;19965;-90
2022/12/27 11:20:27;;;;;;;;;;;18.40;61.30;;;;;;5071934;28;19908;-90
2022/12/27 11:22:53;;;;;;;;;;;18.40;60.60;;;;;;5074467;28;19922;-90
2022/12/27 11:25:19;;;;;;;;;;;18.50;60.60;;;;;;5072860;28;19912;-91
2022/12/27 11:27:46;;;;;;;;;;;18.50;60.40;;;;;;5072865;28;20224;-90
2022/12/27 11:30:27;;;;;;;;;;;18.50;60.20;;;;;;5072879;28;19916;-91
2022/12/27 11:32:53;;;;;;;;;;;18.60;60.20;;;;;;5091995;28;19951;-91
2022/12/27 11:35:20;;;;;;;;;;;18.60;60.10;;;;;;5075208;28;19971;-90
2022/12/27 11:37:46;;;;;;;;;;;18.60;60.00;;;;;;5075040;28;20187;-90
2022/12/27 11:40:21;;;;;;;;;;;18.60;59.90;;;;;;5074807;28;19908;-90
2022/12/27 11:42:50;;;;;;;;;;;18.60;59.90;;;;;;5080842;28;19977;-90
2022/12/27 11:45:18;;;;;;;;;;;18.60;60.00;;;;;;5075314;28;19916;-91
2022/12/27 11:47:53;;;;;;;;;;;18.50;60.10;;;;;;5074191;28;19997;-90
2022/12/27 11:50:28;;;;;;;;;;;18.50;60.10;;;;;;5072245;28;19922;-90
2022/12/27 11:53:02;;;;;;;;;;;18.50;60.30;;;;;;5073461;28;19922;-90
2022/12/27 11:55:31;;;;;;;;;;;18.40;60.40;;;;;;5072701;28;19918;-90
2022/12/27 11:58:05;;;;;;;;;;;18.30;60.60;;;;;;5072100;28;19919;-90
2022/12/27 12:00:51;;;;;;;;;;;18.30;60.70;;;;;;5073083;28;19985;-90
2022/12/27 12:03:36;;;;;;;;;;;18.30;60.80;;;;;;5022914;28;19973;-90
2022/12/27 12:06:01;;;;;;;;;;;18.20;61.00;;;;;;5091452;28;20039;-91
2022/12/27 12:08:54;;;;;;;;;;;18.20;61.40;;;;;;5071732;28;20004;-91
2022/12/27 12:11:25;;;;;;;;;;;18.10;61.60;;;;;;5073246;28;19908;-90
2022/12/27 12:13:57;;;;;;;;;;;18.10;62.00;;;;;;5073263;28;19912;-90
2022/12/27 12:16:30;;;;;;;;;;;18.00;62.30;;;;;;5075474;28;19908;-90
2022/12/27 12:19:15;;;;;;;;;;;17.90;62.70;;;;;;5074766;28;20299;-90
2022/12/27 12:21:59;;;;;;;;;;;17.90;63.10;;;;;;5073341;28;19939;-90
2022/12/27 12:24:32;;;;;;;;;;;17.80;63.30;;;;;;5072673;28;20415;-90
2022/12/27 12:27:13;;;;;;;;;;;17.80;63.60;;;;;;5072256;28;19920;-90
2022/12/27 12:29:51;;;;;;;;;;;17.70;63.90;;;;;;5072423;28;19919;-90
2022/12/27 12:32:22;;;;;;;;;;;17.70;64.30;;;;;;5071451;28;20193;-90
2022/12/27 12:35:02;;;;;;;;;;;17.60;64.60;;;;;;5070263;28;19915;-90
2022/12/27 12:37:27;;;;;;;;;;;17.50;64.90;;;;;;5068946;28;20051;-90
2022/12/27 12:40:02;;;;;;;;;;;17.50;65.20;;;;;;5068218;28;19923;-90
2022/12/27 12:42:37;;;;;;;;;;;17.50;65.50;;;;;;5066317;28;20282;-90
2022/12/27 12:45:22;;;;;;;;;;;17.40;65.70;;;;;;5066826;28;19907;-90
2022/12/27 12:47:48;;;;;;;;;;;17.40;66.00;;;;;;5069830;28;19909;-91
2022/12/27 12:50:23;;;;;;;;;;;17.40;66.30;;;;;;5068127;28;19915;-91
2022/12/27 12:53:00;;;;;;;;;;;17.30;66.50;;;;;;5065883;28;20189;-90
2022/12/27 12:55:31;;;;;;;;;;;17.30;66.40;;;;;;5085712;28;20278;-90
2022/12/27 12:58:15;;;;;;;;;;;17.40;66.40;;;;;;5069985;28;20443;-90
2022/12/27 13:00:44;;;;;;;;;;;17.40;66.40;;;;;;5069310;28;20058;-90
2022/12/27 13:03:19;;;;;;;;;;;17.30;66.40;;;;;;5072656;28;19916;-90
2022/12/27 13:05:56;;;;;;;;;;;17.30;66.50;;;;;;5071977;28;19912;-90
2022/12/27 13:08:31;;;;;;;;;;;17.30;66.80;;;;;;5071889;28;20122;-91
2022/12/27 13:11:05;;;;;;;;;;;17.20;67.30;;;;;;5070665;28;19969;-90
2022/12/27 13:13:34;;;;;;;;;;;17.10;67.70;;;;;;5070806;28;19912;-90
2022/12/27 13:16:00;;;;;;;;;;;17.00;68.20;;;;;;5069368;28;20009;-90
2022/12/27 13:18:38;;;;;;;;;;;16.90;68.60;;;;;;5070276;28;20009;-90
2022/12/27 13:21:15;;;;;;;;;;;16.90;69.00;;;;;;5069694;28;19908;-90
2022/12/27 13:23:44;;;;;;;;;;;16.90;69.30;;;;;;5088882;28;19908;-90
2022/12/27 13:26:13;;;;;;;;;;;16.80;69.50;;;;;;5071606;28;19913;-90
2022/12/27 13:28:45;;;;;;;;;;;16.80;69.90;;;;;;5072968;28;19919;-90
2022/12/27 13:31:16;;;;;;;;;;;16.80;70.10;;;;;;5090016;28;19908;-91
2022/12/27 13:33:52;;;;;;;;;;;16.90;70.20;;;;;;5072332;28;19971;-90
2022/12/27 13:36:25;;;;;;;;;;;16.90;69.90;;;;;;5071545;28;19948;-90
2022/12/27 13:39:02;;;;;;;;;;;17.00;69.60;;;;;;5070195;28;19916;-90
2022/12/27 13:41:47;;;;;;;;;;;17.10;68.90;;;;;;5071693;28;20002;-90
2022/12/27 13:44:37;;;;;;;;;;;17.30;68.20;;;;;;5071784;28;19919;-91
2022/12/27 13:47:06;;;;;;;;;;;17.50;67.40;;;;;;5070843;28;19919;-90
2022/12/27 13:49:44;;;;;;;;;;;17.60;66.40;;;;;;5068908;28;19908;-91
2022/12/27 13:52:15;;;;;;;;;;;17.80;65.60;;;;;;5068302;28;19947;-90
2022/12/27 13:54:51;;;;;;;;;;;17.90;64.60;;;;;;5068094;28;19915;-90
2022/12/27 13:57:29;;;;;;;;;;;18.00;64.20;;;;;;5071906;28;19924;-90
2022/12/27 13:59:55;;;;;;;;;;;18.00;64.20;;;;;;5069118;28;19919;-90
2022/12/27 14:02:36;;;;;;;;;;;18.00;64.30;;;;;;5071682;28;19908;-90
2022/12/27 14:05:02;;;;;;;;;;;17.90;64.50;;;;;;5071195;28;19912;-90
2022/12/27 14:07:30;;;;;;;;;;;17.90;65.00;;;;;;5069752;28;20294;-91
2022/12/27 14:10:05;;;;;;;;;;;17.80;65.50;;;;;;5070678;28;20003;-90
2022/12/27 14:12:50;;;;;;;;;;;17.70;66.00;;;;;;5071574;28;20363;-90
2022/12/27 14:15:21;;;;;;;;;;;17.60;66.80;;;;;;5088462;28;19908;-90
2022/12/27 14:17:56;;;;;;;;;;;17.50;67.40;;;;;;5070286;28;20002;-90
2022/12/27 14:20:22;;;;;;;;;;;17.40;67.80;;;;;;5089730;28;19951;-90
2022/12/27 14:22:53;;;;;;;;;;;17.30;68.10;;;;;;5070623;28;20185;-91
2022/12/27 14:25:34;;;;;;;;;;;17.30;69.10;;;;;;5070601;28;20175;-90
2022/12/27 14:28:00;;;;;;;;;;;17.20;69.70;;;;;;5068746;28;19959;-91
2022/12/27 14:30:44;;;;;;;;;;;17.10;70.40;;;;;;5069944;28;19958;-91
2022/12/27 14:33:28;;;;;;;;;;;17.00;71.20;;;;;;5069219;28;19916;-90
2022/12/27 14:36:00;;;;;;;;;;;16.90;72.10;;;;;;5089871;28;19912;-90
2022/12/27 14:38:31;;;;;;;;;;;16.80;72.60;;;;;;5089514;28;20036;-90
2022/12/27 14:41:16;;;;;;;;;;;16.80;73.20;;;;;;5070265;28;19908;-90
2022/12/27 14:43:45;;;;;;;;;;;16.70;73.80;;;;;;5071138;28;20189;-90
2022/12/27 14:46:22;;;;;;;;;;;16.70;74.40;;;;;;5086929;28;19977;-90
2022/12/27 14:49:03;;;;;;;;;;;16.60;75.00;;;;;;5071228;28;20391;-90
2022/12/27 14:51:34;;;;;;;;;;;16.60;75.60;;;;;;5074472;28;19920;-90
2022/12/27 14:54:06;;;;;;;;;;;16.50;76.10;;;;;;5073805;28;20583;-90
2022/12/27 14:56:54;;;;;;;;;;;16.50;76.50;;;;;;5074698;28;19908;-90
2022/12/27 14:59:28;;;;;;;;;;;16.50;77.00;;;;;;5075454;28;19919;-90
2022/12/27 15:01:54;;;;;;;;;;;16.40;77.10;;;;;;5074228;28;20075;-90
2022/12/27 15:04:22;;;;;;;;;;;16.40;77.40;;;;;;5072850;28;19945;-90
2022/12/27 15:06:55;;;;;;;;;;;16.40;77.40;;;;;;5091722;28;20125;-90
2022/12/27 15:09:32;;;;;;;;;;;16.40;77.40;;;;;;5091799;28;19938;-90
2022/12/27 15:12:22;;;;;;;;;;;16.50;77.50;;;;;;5093446;28;19908;-90
2022/12/27 15:14:52;;;;;;;;;;;16.50;77.50;;;;;;5074204;28;20156;-90
2022/12/27 15:17:51;;;;;;;;;;;16.50;77.30;;;;;;5073099;28;19915;-90
2022/12/27 15:20:23;;;;;;;;;;;16.50;77.10;;;;;;5020023;28;19948;-90
2022/12/27 15:22:55;;;;;;;;;;;16.50;77.10;;;;;;5072937;28;19908;-90
2022/12/27 15:25:30;;;;;;;;;;;16.50;77.10;;;;;;5089866;28;19908;-90
2022/12/27 15:28:15;;;;;;;;;;;16.50;77.10;;;;;;5072038;28;19976;-91
2022/12/27 15:30:58;;;;;;;;;;;16.50;77.00;;;;;;5089584;28;20007;-90
2022/12/27 15:33:27;;;;;;;;;;;16.50;77.10;;;;;;5071997;28;19916;-90
2022/12/27 15:36:03;;;;;;;;;;;16.50;77.10;;;;;;5075108;28;19947;-90
2022/12/27 15:38:40;;;;;;;;;;;16.50;77.10;;;;;;5072685;28;19908;-90
2022/12/27 15:41:06;;;;;;;;;;;16.50;77.30;;;;;;5071364;28;19905;-90
2022/12/27 15:43:49;;;;;;;;;;;16.50;77.50;;;;;;5071525;28;20105;-90
2022/12/27 15:46:39;;;;;;;;;;;16.40;77.80;;;;;;5071902;28;19938;-90
2022/12/27 15:49:14;;;;;;;;;;;16.40;78.20;;;;;;5073661;28;20051;-90
2022/12/27 15:51:46;;;;;;;;;;;16.40;78.50;;;;;;5073189;28;20019;-90
2022/12/27 15:54:12;;;;;;;;;;;16.40;79.00;;;;;;5070051;28;19908;-90
2022/12/27 15:56:46;;;;;;;;;;;16.30;79.20;;;;;;5070749;28;19919;-90
2022/12/27 15:59:34;;;;;;;;;;;16.30;79.60;;;;;;5070542;28;20171;-91
2022/12/27 16:02:12;;;;;;;;;;;16.30;80.00;;;;;;5072926;28;19908;-91
2022/12/27 16:04:45;;;;;;;;;;;16.30;80.40;;;;;;5069529;28;19912;-90
2022/12/27 16:10:29;;;;;;;;;;;16.20;80.60;;;;;;5090102;28;20257;-90
2022/12/27 16:13:01;;;;;;;;;;;16.20;80.90;;;;;;5071057;28;19944;-90
2022/12/27 16:15:36;;;;;;;;;;;16.20;81.10;;;;;;5068542;28;19948;-91